Time;durP1;ratioP1;P1;durP2;ratioP2;P2;SDS_P1;SDS_P2;PMS_P1;PMS_P2;Temp;Humidity;BMP_temperature;BMP_pressure;BME280_temperature;BME280_humidity;BME280_pressure;Samples;Min_cycle;Max_cycle;Signal;HPM_P1;HPM_P2
2023/01/06 00:00:43;;;;;;;3.45;1.30;;;;;;;9.52;100.00;101101.13;5039579;28;20448;-71
2023/01/06 00:03:08;;;;;;;3.72;1.35;;;;;;;9.51;100.00;101100.31;5044237;28;20054;-71
2023/01/06 00:05:34;;;;;;;3.80;1.15;;;;;;;9.51;100.00;101096.72;5077342;28;20040;-71
2023/01/06 00:07:59;;;;;;;3.38;1.35;;;;;;;9.48;100.00;101103.63;5060625;28;20369;-71
2023/01/06 00:10:25;;;;;;;5.70;1.30;;;;;;;9.48;100.00;101103.63;5077700;28;20056;-71
2023/01/06 00:12:51;;;;;;;3.38;1.17;;;;;;;9.47;100.00;101096.44;5077614;28;20034;-71
2023/01/06 00:15:17;;;;;;;5.18;1.27;;;;;;;9.47;100.00;101095.56;5044056;28;20062;-71
2023/01/06 00:17:42;;;;;;;3.90;1.23;;;;;;;9.48;100.00;101100.03;5057208;28;20099;-71
2023/01/06 00:20:08;;;;;;;3.60;1.20;;;;;;;9.47;100.00;101107.53;5039223;28;20392;-72
2023/01/06 00:22:34;;;;;;;2.47;1.02;;;;;;;9.47;100.00;101095.56;5077387;28;20036;-71
2023/01/06 00:24:59;;;;;;;5.03;1.40;;;;;;;9.48;100.00;101087.00;5084518;28;20032;-71
2023/01/06 00:27:25;;;;;;;4.50;1.33;;;;;;;9.47;100.00;101082.56;5094103;28;20032;-71
2023/01/06 00:29:50;;;;;;;3.33;1.15;;;;;;;9.47;100.00;101070.63;5060627;28;20020;-71
2023/01/06 00:32:16;;;;;;;3.35;1.15;;;;;;;9.47;100.00;101079.78;5060362;28;20040;-71
2023/01/06 00:34:42;;;;;;;3.60;1.27;;;;;;;9.47;100.00;101067.84;5057413;28;20075;-71
2023/01/06 00:37:07;;;;;;;3.00;0.95;;;;;;;9.47;100.00;101063.16;5060239;28;20048;-71
2023/01/06 00:39:33;;;;;;;4.13;1.30;;;;;;;9.42;100.00;101060.38;5056884;28;20043;-71
2023/01/06 00:42:05;;;;;;;3.17;1.20;;;;;;;9.43;100.00;101063.97;5056704;28;20500;-71
2023/01/06 00:44:36;;;;;;;3.33;1.20;;;;;;;9.43;100.00;101070.34;5072060;28;20039;-71
2023/01/06 00:47:02;;;;;;;4.35;1.05;;;;;;;9.42;100.00;101076.16;5093615;28;20300;-71
2023/01/06 00:49:28;;;;;;;4.35;1.00;;;;;;;9.40;100.00;101068.94;5097106;28;20026;-71
2023/01/06 00:51:53;;;;;;;4.07;1.10;;;;;;;9.37;100.00;101074.22;5047387;28;20032;-71
2023/01/06 00:54:19;;;;;;;3.63;1.02;;;;;;;9.39;100.00;101072.84;5062645;28;20036;-71
2023/01/06 00:56:46;;;;;;;4.10;0.93;;;;;;;9.42;100.00;101067.81;5080710;28;20024;-71
2023/01/06 00:59:16;;;;;;;2.50;0.80;;;;;;;9.40;100.00;101063.41;5047337;28;20058;-71
2023/01/06 01:01:42;;;;;;;5.07;1.30;;;;;;;9.38;100.00;101071.16;5060492;28;20082;-71
2023/01/06 01:04:08;;;;;;;3.78;1.00;;;;;;;9.39;100.00;101072.00;5042279;28;20021;-72
2023/01/06 01:06:33;;;;;;;2.97;1.20;;;;;;;9.39;100.00;101080.31;5063716;28;20028;-71
2023/01/06 01:08:59;;;;;;;3.92;1.27;;;;;;;9.38;100.00;101076.69;5063223;28;20028;-72
2023/01/06 01:14:09;;;;;;;4.45;0.90;;;;;;;9.37;100.00;101082.53;5083266;28;20024;-72
2023/01/06 01:16:35;;;;;;;3.53;0.95;;;;;;;9.39;100.00;101089.47;5060184;28;20055;-72
2023/01/06 01:19:01;;;;;;;4.63;1.13;;;;;;;9.36;100.00;101087.25;5045780;28;20035;-72
2023/01/06 01:21:26;;;;;;;2.75;0.90;;;;;;;9.37;100.00;101090.84;5043801;28;20263;-71
2023/01/06 01:23:52;;;;;;;2.42;0.93;;;;;;;9.38;100.00;101086.94;5059593;28;20029;-71
2023/01/06 01:26:17;;;;;;;3.92;1.10;;;;;;;9.39;100.00;101088.63;5051435;28;20024;-71
2023/01/06 01:28:43;;;;;;;1.45;0.80;;;;;;;9.38;100.00;101086.94;5057793;28;20031;-71
2023/01/06 01:31:08;;;;;;;3.75;1.23;;;;;;;9.38;100.00;101081.41;5034413;28;20033;-71
2023/01/06 01:33:34;;;;;;;4.10;1.20;;;;;;;9.40;100.00;101077.25;5060849;28;20040;-71
2023/01/06 01:36:06;;;;;;;3.55;1.05;;;;;;;9.42;100.00;101071.47;5079762;28;20055;-71
2023/01/06 01:38:32;;;;;;;;;;;;;;;9.42;100.00;101065.91;5080814;28;20036;-71
2023/01/06 01:40:57;;;;;;;3.00;1.10;;;;;;;9.41;100.00;101067.00;5068011;28;19912;-71
2023/01/06 01:43:23;;;;;;;4.18;1.17;;;;;;;9.39;100.00;101063.69;5077044;28;20028;-71
2023/01/06 01:45:50;;;;;;;5.00;1.10;;;;;;;9.39;100.00;101064.53;5096757;28;20048;-71
2023/01/06 01:48:33;;;;;;;2.00;1.02;;;;;;;9.41;100.00;101069.78;5063373;28;20043;-71
2023/01/06 01:51:00;;;;;;;3.33;1.10;;;;;;;9.39;100.00;101055.38;5098052;28;20049;-71
2023/01/06 01:53:31;;;;;;;4.30;1.00;;;;;;;9.39;100.00;101050.66;5046488;28;20392;-71
2023/01/06 01:55:57;;;;;;;2.22;0.80;;;;;;;9.40;100.00;101040.41;5049967;28;20033;-71
2023/01/06 01:58:29;;;;;;;3.53;1.25;;;;;;;9.41;100.00;101053.13;5046691;28;20047;-71
2023/01/06 02:00:54;;;;;;;4.55;1.10;;;;;;;9.40;100.00;101048.72;5074926;28;20037;-71
2023/01/06 02:03:20;;;;;;;4.43;1.55;;;;;;;9.36;100.00;101044.81;5069601;28;20039;-71
2023/01/06 02:05:49;;;;;;;4.10;0.80;;;;;;;9.36;100.00;101050.34;5079558;28;20031;-71
2023/01/06 02:08:40;;;;;;;4.30;1.25;;;;;;;9.32;100.00;101050.06;5046418;28;20408;-71
2023/01/06 02:11:06;;;;;;;3.97;1.83;;;;;;;9.29;100.00;101050.63;5075646;28;20119;-72
2023/01/06 02:13:32;;;;;;;2.72;0.75;;;;;;;9.27;100.00;101038.97;5040170;28;20065;-71
2023/01/06 02:16:19;;;;;;;2.95;0.90;;;;;;;9.25;100.00;101049.50;5045777;28;20032;-71
2023/01/06 02:18:57;;;;;;;9.68;1.05;;;;;;;9.23;100.00;101028.72;5095843;28;20020;-71
2023/01/06 02:21:29;;;;;;;3.97;1.40;;;;;;;9.22;100.00;101029.78;5078929;28;20034;-71
2023/01/06 02:24:10;;;;;;;3.75;1.05;;;;;;;9.15;100.00;101019.81;5092608;28;20070;-71
2023/01/06 02:26:53;;;;;;;4.18;1.10;;;;;;;9.16;100.00;101013.19;5088776;28;20059;-72
2023/01/06 02:29:50;;;;;;;2.22;0.95;;;;;;;9.14;100.00;101015.38;5080235;28;20031;-72
2023/01/06 02:32:47;;;;;;;3.47;0.95;;;;;;;9.15;100.00;101014.25;5065380;28;20041;-71
2023/01/06 02:35:23;;;;;;;6.38;1.50;;;;;;;9.12;100.00;101016.75;5080184;28;20103;-71
2023/01/06 02:38:06;;;;;;;6.15;1.30;;;;;;;9.06;100.00;101015.91;5062629;28;20048;-71
2023/01/06 02:41:03;;;;;;;4.73;1.37;;;;;;;9.02;100.00;101009.22;5063584;28;20028;-71
2023/01/06 02:43:45;;;;;;;4.15;1.27;;;;;;;8.98;100.00;101010.06;5067782;28;20119;-71
2023/01/06 02:46:15;;;;;;;6.40;1.37;;;;;;;8.95;100.00;101005.88;5072159;28;20048;-72
2023/01/06 02:48:48;;;;;;;7.57;1.40;;;;;;;8.97;100.00;101002.84;5058619;28;20051;-71
2023/01/06 02:51:35;;;;;;;4.93;1.40;;;;;;;8.97;100.00;100995.38;5075281;28;20071;-71
2023/01/06 02:54:06;;;;;;;4.13;1.40;;;;;;;8.96;100.00;101004.78;5078600;28;20365;-71
2023/01/06 02:56:35;;;;;;;4.80;1.50;;;;;;;8.93;100.00;100994.25;5078213;28;20020;-71
2023/01/06 02:59:09;;;;;;;5.18;1.33;;;;;;;8.90;100.00;100992.00;5076149;28;20035;-71
2023/01/06 03:01:40;;;;;;;3.42;1.38;;;;;;;8.88;100.00;100999.75;5061733;28;20385;-71
2023/01/06 03:04:09;;;;;;;5.88;1.20;;;;;;;8.87;100.00;100989.78;5061074;28;20055;-71
2023/01/06 03:06:34;;;;;;;3.67;1.20;;;;;;;8.84;100.00;100987.56;5045505;28;20111;-71
2023/01/06 03:09:00;;;;;;;6.50;1.50;;;;;;;8.85;100.00;100983.69;5045232;28;20047;-71
2023/01/06 03:11:26;;;;;;;5.25;1.33;;;;;;;8.80;100.00;100981.72;5061734;28;20081;-71
2023/01/06 03:13:56;;;;;;;6.70;1.20;;;;;;;8.79;100.00;100977.28;5078076;28;20024;-71
2023/01/06 03:16:22;;;;;;;6.15;1.40;;;;;;;8.77;100.00;100975.91;5094815;28;20031;-71
2023/01/06 03:18:48;;;;;;;5.95;1.13;;;;;;;8.76;100.00;100977.00;5094785;28;20081;-71
2023/01/06 03:21:21;;;;;;;3.42;1.10;;;;;;;8.76;100.00;100979.78;5061517;28;20036;-71
2023/01/06 03:23:47;;;;;;;7.55;3.80;;;;;;;8.73;100.00;100981.16;5058754;28;20040;-71
2023/01/06 03:26:12;;;;;;;5.07;1.95;;;;;;;8.73;100.00;100979.22;5077927;28;20035;-71
2023/01/06 03:28:38;;;;;;;6.88;2.30;;;;;;;8.70;100.00;100976.16;5061462;28;20062;-72
2023/01/06 03:31:12;;;;;;;5.97;2.30;;;;;;;8.67;100.00;100982.22;5077700;28;20024;-71
2023/01/06 03:33:53;;;;;;;4.43;2.40;;;;;;;8.63;100.00;100970.00;5061276;28;20032;-71
2023/01/06 03:36:32;;;;;;;6.75;1.92;;;;;;;8.62;100.00;100969.19;5045339;28;20048;-71
2023/01/06 03:39:09;;;;;;;4.63;1.95;;;;;;;8.61;100.00;100973.06;5078841;28;20488;-71
2023/01/06 03:45:15;;;;;;;4.05;2.03;;;;;;;8.57;100.00;100963.63;5093791;28;20040;-72
2023/01/06 03:47:46;;;;;;;6.88;1.73;;;;;;;8.55;100.00;100960.28;5080171;28;20031;-71
2023/01/06 03:50:28;;;;;;;5.97;1.90;;;;;;;8.54;100.00;100960.56;5058226;28;20032;-71
2023/01/06 03:53:08;;;;;;;7.18;1.92;;;;;;;8.51;100.00;100964.72;5054003;28;20050;-71
2023/01/06 03:55:34;;;;;;;4.00;2.33;;;;;;;8.50;100.00;100965.81;5066435;28;20451;-71
2023/01/06 03:57:59;;;;;;;5.45;2.50;;;;;;;8.53;100.00;100964.44;5061637;28;20024;-71
2023/01/06 04:00:27;;;;;;;6.10;2.10;;;;;;;8.51;100.00;100961.94;5060498;28;20025;-71
2023/01/06 04:02:52;;;;;;;4.90;2.25;;;;;;;8.52;100.00;100963.59;5044254;28;20032;-72
2023/01/06 04:05:20;;;;;;;5.10;2.50;;;;;;;8.49;100.00;100959.44;5057615;28;20021;-71
2023/01/06 04:07:45;;;;;;;4.50;2.47;;;;;;;8.47;100.00;100956.13;5057591;28;20086;-71
2023/01/06 04:10:11;;;;;;;7.63;2.60;;;;;;;8.45;100.00;100943.66;5074341;28;20036;-71
2023/01/06 04:12:37;;;;;;;7.07;4.15;;;;;;;8.43;100.00;100954.16;5094102;28;20066;-71
2023/01/06 04:15:08;;;;;;;3.90;2.50;;;;;;;8.43;100.00;100949.44;5060512;28;20028;-72
2023/01/06 04:17:34;;;;;;;5.03;2.05;;;;;;;8.40;100.00;100949.97;5064936;28;20169;-71
2023/01/06 04:19:59;;;;;;;5.65;2.00;;;;;;;8.41;100.00;100956.34;5051218;28;20035;-71
2023/01/06 04:22:25;;;;;;;3.05;1.67;;;;;;;8.41;100.00;100957.19;5060956;28;20524;-71
2023/01/06 04:24:50;;;;;;;4.72;2.13;;;;;;;8.40;100.00;100955.50;5052319;28;20033;-72
2023/01/06 04:27:16;;;;;;;5.63;2.13;;;;;;;8.39;100.00;100956.63;5058794;28;20081;-71
2023/01/06 04:29:41;;;;;;;5.05;2.05;;;;;;;8.43;100.00;100954.16;5061518;28;20361;-71
2023/01/06 04:32:06;;;;;;;5.53;2.05;;;;;;;8.43;100.00;100965.22;5076453;28;20034;-71
2023/01/06 04:34:32;;;;;;;6.05;1.92;;;;;;;8.44;100.00;100956.66;5068890;28;20074;-72
2023/01/06 04:36:57;;;;;;;7.18;1.83;;;;;;;8.46;100.00;100959.13;5062962;28;20055;-71
2023/01/06 04:39:23;;;;;;;5.57;1.58;;;;;;;8.47;100.00;100950.56;5053448;28;20028;-71
2023/01/06 04:41:48;;;;;;;5.20;1.50;;;;;;;8.50;100.00;100949.22;5060048;28;20056;-71
2023/01/06 04:44:14;;;;;;;5.57;2.13;;;;;;;8.49;100.00;100948.34;5056332;28;20051;-71
2023/01/06 04:46:39;;;;;;;5.50;1.77;;;;;;;8.49;100.00;100950.28;5063986;28;20523;-71
2023/01/06 04:49:05;;;;;;;3.53;1.90;;;;;;;8.52;100.00;100946.97;5060834;28;20515;-71
2023/01/06 04:51:31;;;;;;;8.20;3.83;;;;;;;8.50;100.00;100949.22;5063141;28;20020;-71
2023/01/06 04:53:56;;;;;;;6.03;2.78;;;;;;;8.53;100.00;100945.91;5080911;28;20486;-71
2023/01/06 04:56:21;;;;;;;6.72;2.05;;;;;;;8.55;100.00;100946.44;5063937;28;20239;-71
2023/01/06 04:58:47;;;;;;;5.50;1.98;;;;;;;8.54;100.00;100953.09;5080589;28;20039;-71
2023/01/06 05:01:13;;;;;;;7.97;2.60;;;;;;;8.53;100.00;100948.66;5097305;28;20028;-71
2023/01/06 05:03:39;;;;;;;4.32;2.30;;;;;;;8.56;100.00;100953.66;5097873;28;20403;-71
2023/01/06 05:06:09;;;;;;;3.90;1.90;;;;;;;8.57;100.00;100955.31;5080552;28;20032;-71
2023/01/06 05:08:35;;;;;;;5.57;1.77;;;;;;;8.58;100.00;100957.00;5065016;28;20027;-71
2023/01/06 05:11:02;;;;;;;2.92;1.95;;;;;;;8.60;100.00;100952.00;5063843;28;20043;-71
2023/01/06 05:13:28;;;;;;;3.90;1.90;;;;;;;8.62;100.00;100955.34;5064166;28;20113;-71
2023/01/06 05:15:53;;;;;;;2.22;1.67;;;;;;;8.63;100.00;100951.47;5080383;28;20028;-71
2023/01/06 05:18:19;;;;;;;4.68;1.95;;;;;;;8.66;100.00;100950.94;5063860;28;20024;-71
2023/01/06 05:20:49;;;;;;;3.20;1.70;;;;;;;8.67;100.00;100952.59;5080354;28;20039;-71
2023/01/06 05:23:15;;;;;;;3.25;1.50;;;;;;;8.70;100.00;100960.38;5097102;28;20024;-71
2023/01/06 05:25:40;;;;;;;3.42;1.50;;;;;;;8.72;100.00;100951.81;5050330;28;20085;-71
2023/01/06 05:28:06;;;;;;;3.80;1.90;;;;;;;8.75;100.00;100950.41;5063653;28;20035;-71
2023/01/06 05:30:31;;;;;;;7.15;1.92;;;;;;;8.76;100.00;100949.31;5096666;28;20473;-71
2023/01/06 05:32:57;;;;;;;2.35;1.52;;;;;;;8.80;100.00;100958.72;5063158;28;20043;-71
2023/01/06 05:35:22;;;;;;;3.42;1.40;;;;;;;8.81;100.00;100950.16;5045518;28;20032;-71
2023/01/06 05:37:48;;;;;;;2.75;1.70;;;;;;;8.84;100.00;100946.84;5046625;28;20369;-71
2023/01/06 05:40:13;;;;;;;6.55;1.58;;;;;;;8.84;100.00;100949.63;5079746;28;20028;-71
2023/01/06 05:42:38;;;;;;;8.68;1.75;;;;;;;8.86;100.00;100946.56;5069737;28;20081;-71
2023/01/06 05:45:04;;;;;;;4.28;1.73;;;;;;;8.86;100.00;100952.97;5056800;28;20028;-71
2023/01/06 05:47:30;;;;;;;3.00;1.95;;;;;;;8.85;100.00;100950.44;5060146;28;20029;-71
2023/01/06 05:49:55;;;;;;;4.97;1.50;;;;;;;8.89;100.00;100948.81;5026545;28;20025;-71
2023/01/06 05:52:21;;;;;;;5.10;2.20;;;;;;;8.91;100.00;100950.22;5056225;28;20227;-71
2023/01/06 05:54:46;;;;;;;4.47;1.67;;;;;;;8.91;100.00;100949.34;5059626;28;20381;-71
2023/01/06 05:57:12;;;;;;;5.15;2.15;;;;;;;8.93;100.00;100952.69;5072580;28;20031;-72
2023/01/06 05:59:37;;;;;;;3.40;1.40;;;;;;;8.92;100.00;100946.31;5062814;28;20036;-71
2023/01/06 06:02:03;;;;;;;4.88;1.67;;;;;;;8.93;100.00;100942.44;5076023;28;20028;-71
2023/01/06 06:04:28;;;;;;;5.45;2.65;;;;;;;8.96;100.00;100946.59;5075600;28;20055;-71
2023/01/06 06:06:54;;;;;;;7.43;2.17;;;;;;;8.96;100.00;100949.38;5039084;28;20035;-71
2023/01/06 06:09:19;;;;;;;3.97;1.83;;;;;;;8.96;100.00;100946.59;5062666;28;20062;-71
2023/01/06 06:11:45;;;;;;;5.35;1.90;;;;;;;8.97;100.00;100953.81;5059245;28;20024;-71
2023/01/06 06:14:10;;;;;;;7.03;2.33;;;;;;;8.98;100.00;100952.72;5045518;28;20020;-71
2023/01/06 06:16:36;;;;;;;8.18;1.98;;;;;;;8.99;100.00;100959.91;5079225;28;20028;-71
2023/01/06 06:19:01;;;;;;;7.53;2.25;;;;;;;9.01;100.00;100957.69;5045681;28;20053;-72
2023/01/06 06:21:28;;;;;;;7.78;2.50;;;;;;;9.01;100.00;100957.69;5096103;28;20028;-72
2023/01/06 06:23:55;;;;;;;4.03;1.50;;;;;;;9.02;100.00;100959.34;5062488;28;20047;-71
2023/01/06 06:26:21;;;;;;;6.22;1.90;;;;;;;9.03;100.00;100968.53;5085299;28;20610;-71
2023/01/06 06:28:46;;;;;;;4.93;1.67;;;;;;;9.04;100.00;100957.16;5095646;28;20028;-71
2023/01/06 06:31:19;;;;;;;4.93;1.50;;;;;;;9.07;100.00;100964.09;5096820;28;20024;-71
2023/01/06 06:33:44;;;;;;;9.30;1.60;;;;;;;9.08;100.00;100960.19;5095839;28;20034;-71
2023/01/06 06:36:14;;;;;;;7.88;1.63;;;;;;;9.11;100.00;100971.59;5078968;28;20590;-71
2023/01/06 06:38:39;;;;;;;4.40;1.80;;;;;;;9.10;100.00;100961.59;5079582;28;20040;-71
2023/01/06 06:41:05;;;;;;;3.72;1.50;;;;;;;9.11;100.00;100963.28;5075324;28;20508;-71
2023/01/06 06:43:31;;;;;;;6.53;1.70;;;;;;;9.12;100.00;100956.63;5049450;28;20533;-71
2023/01/06 06:45:56;;;;;;;6.03;1.40;;;;;;;9.15;100.00;100964.38;5078130;28;20024;-71
2023/01/06 06:48:22;;;;;;;6.22;1.80;;;;;;;9.15;100.00;100964.38;5096825;28;20499;-71
2023/01/06 06:50:58;;;;;;;5.63;1.50;;;;;;;9.16;100.00;100967.97;5078625;28;20030;-71
2023/01/06 06:53:23;;;;;;;4.25;1.70;;;;;;;9.16;100.00;100957.75;5095383;28;20024;-71
2023/01/06 06:55:49;;;;;;;5.35;1.60;;;;;;;9.18;100.00;100955.53;5061839;28;20384;-71
2023/01/06 06:58:14;;;;;;;7.93;1.75;;;;;;;9.18;100.00;100961.06;5062146;28;20059;-71
2023/01/06 07:00:40;;;;;;;8.13;1.95;;;;;;;9.17;100.00;100959.41;5061441;28;20050;-71
2023/01/06 07:03:05;;;;;;;6.22;1.95;;;;;;;9.24;100.00;100966.63;5078723;28;20028;-71
2023/01/06 07:05:31;;;;;;;4.80;1.60;;;;;;;9.24;100.00;100961.06;5078453;28;20031;-71
2023/01/06 07:07:56;;;;;;;8.07;1.80;;;;;;;9.26;100.00;100958.88;5045102;28;20027;-71
2023/01/06 07:10:22;;;;;;;6.13;2.00;;;;;;;9.26;100.00;100961.66;5077712;28;20023;-71
2023/01/06 07:12:47;;;;;;;8.60;2.38;;;;;;;9.28;100.00;100959.44;5058277;28;20034;-71
2023/01/06 07:15:12;;;;;;;6.57;2.42;;;;;;;9.28;100.00;100953.91;5072369;28;20032;-71
2023/01/06 07:17:40;;;;;;;6.35;2.25;;;;;;;9.27;100.00;100968.84;5058122;28;20025;-72
2023/01/06 07:20:06;;;;;;;5.47;2.22;;;;;;;9.29;100.00;100961.91;5054715;28;20035;-72
2023/01/06 07:22:32;;;;;;;9.30;1.92;;;;;;;9.33;100.00;100964.97;5045149;28;20084;-71
2023/01/06 07:24:57;;;;;;;9.52;2.45;;;;;;;9.35;100.00;100960.00;5032400;28;20484;-72
2023/01/06 07:27:23;;;;;;;5.03;1.50;;;;;;;9.35;100.00;100968.31;5077546;28;20024;-71
2023/01/06 07:29:48;;;;;;;6.50;1.90;;;;;;;9.36;100.00;100961.63;5061388;28;20067;-72
2023/01/06 07:32:13;;;;;;;9.90;2.05;;;;;;;9.37;100.00;100957.78;5058039;28;20029;-72
2023/01/06 07:34:39;;;;;;;4.55;1.65;;;;;;;9.36;100.00;100962.50;5054040;28;20036;-71
2023/01/06 07:37:04;;;;;;;5.40;1.60;;;;;;;9.40;100.00;100962.78;5057498;28;20048;-72
2023/01/06 07:39:30;;;;;;;6.22;1.95;;;;;;;9.40;100.00;100968.31;5070948;28;20046;-72
2023/01/06 07:41:55;;;;;;;6.97;1.60;;;;;;;9.39;100.00;100969.44;5059914;28;20054;-72
2023/01/06 07:44:21;;;;;;;7.53;1.80;;;;;;;9.42;100.00;100970.78;5060959;28;20031;-72
2023/01/06 07:46:46;;;;;;;9.18;1.70;;;;;;;9.42;100.00;100977.19;5055453;28;20020;-72
2023/01/06 07:49:12;;;;;;;7.75;1.80;;;;;;;9.46;100.00;100980.25;5077984;28;20039;-72
2023/01/06 07:51:37;;;;;;;10.40;1.83;;;;;;;9.45;100.00;100993.28;5077787;28;20032;-72
2023/01/06 07:54:03;;;;;;;8.25;1.85;;;;;;;9.45;100.00;100982.19;5050670;28;20032;-72
2023/01/06 07:56:28;;;;;;;4.93;1.70;;;;;;;9.47;100.00;100984.66;5040629;28;20032;-72
2023/01/06 07:58:54;;;;;;;6.20;1.90;;;;;;;9.48;100.00;100980.81;5060194;28;20043;-72
2023/01/06 08:01:19;;;;;;;8.30;2.20;;;;;;;9.50;100.00;100979.44;5060725;28;20131;-71
2023/01/06 08:03:45;;;;;;;4.70;1.98;;;;;;;9.50;100.00;100973.03;5073931;28;20032;-72
2023/01/06 08:06:10;;;;;;;5.65;2.45;;;;;;;9.49;100.00;100983.28;5077349;28;20032;-72
2023/01/06 08:08:37;;;;;;;6.07;2.10;;;;;;;9.51;100.00;100980.25;5077307;28;20113;-72
2023/01/06 08:11:05;;;;;;;7.78;2.67;;;;;;;9.52;100.00;100979.97;5040169;28;20461;-72
2023/01/06 08:13:31;;;;;;;5.35;2.53;;;;;;;9.54;100.00;100985.25;5060666;28;20097;-72
2023/01/06 08:15:56;;;;;;;5.07;2.95;;;;;;;9.53;100.00;100984.41;5060245;28;20119;-72
2023/01/06 08:18:22;;;;;;;7.90;2.88;;;;;;;9.53;100.00;100986.38;5068405;28;20033;-72
2023/01/06 08:20:47;;;;;;;5.55;2.75;;;;;;;9.56;100.00;100983.03;5077146;28;20032;-71
2023/01/06 08:23:13;;;;;;;9.25;3.03;;;;;;;9.55;100.00;100981.34;5093696;28;20105;-72
2023/01/06 08:25:38;;;;;;;6.97;3.33;;;;;;;9.58;100.00;100976.13;5063971;28;20024;-71
2023/01/06 08:28:04;;;;;;;6.53;3.05;;;;;;;9.59;100.00;100982.47;5060808;28;20024;-72
2023/01/06 08:30:29;;;;;;;5.38;3.03;;;;;;;9.58;100.00;100983.56;5058092;28;20043;-72
2023/01/06 08:32:58;;;;;;;6.68;2.95;;;;;;;9.60;100.00;100982.19;5060412;28;20028;-72
2023/01/06 08:35:24;;;;;;;3.30;2.50;;;;;;;9.61;100.00;100975.56;5043764;28;20035;-72
2023/01/06 08:37:50;;;;;;;6.43;2.30;;;;;;;9.61;100.00;100983.88;5077191;28;20063;-72
2023/01/06 08:40:15;;;;;;;5.72;2.20;;;;;;;9.62;100.00;100988.31;5043752;28;20042;-72
2023/01/06 08:42:41;;;;;;;5.63;2.33;;;;;;;9.65;100.00;100986.09;5049964;28;20021;-72
2023/01/06 08:45:07;;;;;;;4.28;2.67;;;;;;;9.68;100.00;100991.09;5056050;28;20032;-72
2023/01/06 08:47:33;;;;;;;5.10;2.30;;;;;;;9.68;100.00;100989.13;5076986;28;20073;-71
2023/01/06 08:49:58;;;;;;;4.28;2.35;;;;;;;9.65;100.00;100991.63;5053474;28;20052;-72
2023/01/06 08:52:24;;;;;;;5.68;2.38;;;;;;;9.69;100.00;100996.34;5053528;28;20028;-72
2023/01/06 08:54:49;;;;;;;5.22;2.20;;;;;;;9.69;100.00;101001.88;5060211;28;20043;-72
2023/01/06 08:57:15;;;;;;;6.30;2.42;;;;;;;9.70;100.00;100997.19;5073078;28;20445;-72
2023/01/06 08:59:41;;;;;;;5.97;2.78;;;;;;;9.73;100.00;101004.97;5059912;28;20488;-72
2023/01/06 09:02:09;;;;;;;7.03;2.55;;;;;;;9.74;100.00;100999.13;5073816;28;20055;-71
2023/01/06 09:04:34;;;;;;;5.97;2.58;;;;;;;9.76;100.00;101007.19;5056555;28;20588;-72
2023/01/06 09:07:00;;;;;;;6.70;2.45;;;;;;;9.79;100.00;101006.63;5037163;28;20039;-72
2023/01/06 09:09:25;;;;;;;3.50;2.00;;;;;;;9.80;100.00;101006.31;5044974;28;20476;-72
2023/01/06 09:11:51;;;;;;;4.53;2.22;;;;;;;9.82;100.00;101001.34;5045126;28;20121;-72
2023/01/06 09:14:16;;;;;;;3.05;2.10;;;;;;;9.85;100.00;101005.50;5077128;28;20111;-72
2023/01/06 09:16:42;;;;;;;3.50;1.70;;;;;;;9.87;100.00;101008.03;5090502;28;20055;-73
2023/01/06 09:19:09;;;;;;;3.88;1.65;;;;;;;9.90;100.00;100997.19;5088882;28;20040;-73
2023/01/06 09:21:34;;;;;;;6.55;1.85;;;;;;;9.90;100.00;101002.75;5060509;28;20090;-73
2023/01/06 09:24:00;;;;;;;7.60;2.30;;;;;;;9.95;100.00;101007.47;5058444;28;20092;-73
2023/01/06 09:26:25;;;;;;;6.40;1.77;;;;;;;9.97;100.00;100999.69;5068885;28;20028;-72
2023/01/06 09:28:51;;;;;;;3.50;1.70;;;;;;;9.99;100.00;101014.13;5090873;28;20024;-72
2023/01/06 09:31:17;;;;;;;4.60;1.70;;;;;;;10.00;100.00;101004.66;5096957;28;20020;-72
2023/01/06 09:33:42;;;;;;;4.65;1.80;;;;;;;10.01;100.00;101012.72;5079890;28;20032;-72
2023/01/06 09:36:08;;;;;;;3.78;1.70;;;;;;;10.03;100.00;101004.97;5096643;28;20043;-72
2023/01/06 09:38:33;;;;;;;4.93;1.85;;;;;;;10.05;100.00;101004.66;5063077;28;20032;-72
2023/01/06 09:41:31;;;;;;;5.97;1.77;;;;;;;10.06;100.00;101009.94;5096105;28;20082;-72
2023/01/06 09:44:12;;;;;;;5.57;1.75;;;;;;;10.09;100.00;100996.63;5052788;28;20053;-72
2023/01/06 09:46:39;;;;;;;9.07;2.00;;;;;;;10.08;100.00;101006.88;5059496;28;20028;-72
2023/01/06 09:49:26;;;;;;;6.45;2.00;;;;;;;10.09;100.00;101014.13;5038933;28;20074;-73
2023/01/06 09:52:02;;;;;;;5.43;2.10;;;;;;;10.11;100.00;101011.03;5068300;28;20114;-73
2023/01/06 09:54:29;;;;;;;4.95;1.80;;;;;;;10.11;100.00;101017.41;5096446;28;20081;-73
2023/01/06 09:57:15;;;;;;;8.18;2.10;;;;;;;10.13;100.00;101014.38;5096375;28;20056;-73
2023/01/06 10:00:01;;;;;;;7.80;2.30;;;;;;;10.15;100.00;101021.31;5079256;28;20024;-72
2023/01/06 10:02:35;;;;;;;7.18;2.00;;;;;;;10.18;100.00;101025.47;5078866;28;20115;-72
2023/01/06 10:05:02;;;;;;;5.65;2.22;;;;;;;10.21;100.00;101022.16;5052587;28;20032;-72
2023/01/06 10:07:40;;;;;;;6.50;2.03;;;;;;;10.24;100.00;101018.81;5062813;28;20116;-72
2023/01/06 10:10:29;;;;;;;6.55;2.33;;;;;;;10.25;100.00;101014.91;5079759;28;20024;-72
2023/01/06 10:13:16;;;;;;;5.15;2.20;;;;;;;10.28;100.00;101019.97;5098677;28;20043;-72
2023/01/06 10:15:44;;;;;;;6.55;1.90;;;;;;;10.29;100.00;101024.41;5080969;28;20028;-72
2023/01/06 10:18:36;;;;;;;5.25;1.70;;;;;;;10.35;100.00;101028.00;5079122;28;20028;-72
2023/01/06 10:21:05;;;;;;;3.83;2.03;;;;;;;10.37;100.00;101034.09;5084014;28;20028;-72
2023/01/06 10:24:00;;;;;;;4.80;2.10;;;;;;;10.40;100.00;101045.47;5092164;28;20086;-72
2023/01/06 10:26:37;;;;;;;7.25;1.95;;;;;;;10.40;100.00;101042.69;5070086;28;20032;-72
2023/01/06 10:29:17;;;;;;;7.45;2.10;;;;;;;10.44;100.00;101038.25;5051855;28;20357;-69
2023/01/06 10:31:44;;;;;;;6.18;2.20;;;;;;;10.46;100.00;101035.19;5079720;28;20032;-69
2023/01/06 10:34:26;;;;;;;6.28;1.65;;;;;;;10.48;100.00;101036.59;5075441;28;20081;-69
2023/01/06 10:36:56;;;;;;;4.75;1.90;;;;;;;10.51;100.00;101032.41;5059240;28;20111;-70
2023/01/06 10:39:23;;;;;;;5.65;1.80;;;;;;;10.56;100.00;101039.88;5079267;28;20036;-71
2023/01/06 10:41:52;;;;;;;6.40;1.73;;;;;;;10.59;100.00;101040.16;5076111;28;20050;-71
2023/01/06 10:44:17;;;;;;;5.45;2.22;;;;;;;10.64;100.00;101036.53;5075076;28;20073;-71
2023/01/06 10:46:44;;;;;;;3.15;1.55;;;;;;;10.63;100.00;101032.94;5044691;28;20019;-72
2023/01/06 10:49:17;;;;;;;6.78;1.77;;;;;;;10.63;100.00;101034.88;5096797;28;20024;-72
2023/01/06 10:51:47;;;;;;;4.75;1.60;;;;;;;10.67;100.00;101031.25;5058040;28;20362;-72
2023/01/06 10:54:33;;;;;;;5.80;1.70;;;;;;;10.69;100.00;101033.75;5056176;28;20430;-72
2023/01/06 10:57:03;;;;;;;4.85;1.50;;;;;;;10.71;100.00;101020.41;5072873;28;20048;-71
2023/01/06 10:59:29;;;;;;;2.97;1.27;;;;;;;10.73;100.00;101029.31;5057439;28;20028;-71
2023/01/06 11:01:58;;;;;;;5.30;1.83;;;;;;;10.76;100.00;101022.34;5066157;28;20032;-72
2023/01/06 11:04:25;;;;;;;4.55;1.80;;;;;;;10.77;100.00;101013.72;5077307;28;20028;-72
2023/01/06 11:06:59;;;;;;;6.30;1.80;;;;;;;10.74;100.00;101014.28;5044069;28;22528;-71
2023/01/06 11:09:45;;;;;;;4.65;1.85;;;;;;;10.78;100.00;101012.63;5064838;28;20031;-72
2023/01/06 11:12:16;;;;;;;3.33;1.58;;;;;;;10.79;100.00;101010.66;5061446;28;20062;-71
2023/01/06 11:14:41;;;;;;;3.58;1.60;;;;;;;10.77;100.00;101008.16;5041081;28;20123;-71
2023/01/06 11:17:13;;;;;;;3.67;1.50;;;;;;;10.81;100.00;101013.97;5072926;28;20032;-71
2023/01/06 11:19:43;;;;;;;3.55;1.90;;;;;;;10.82;100.00;101005.38;5056439;28;20025;-71
2023/01/06 11:22:36;;;;;;;5.35;1.65;;;;;;;10.85;100.00;100999.25;5044022;28;20081;-71
2023/01/06 11:25:03;;;;;;;4.03;1.73;;;;;;;10.88;100.00;101000.63;5058668;28;20072;-72
2023/01/06 11:27:28;;;;;;;4.88;1.52;;;;;;;10.87;100.00;100990.63;5077557;28;20661;-72
2023/01/06 11:29:54;;;;;;;4.68;1.63;;;;;;;10.89;100.00;100989.25;5057955;28;20025;-72
2023/01/06 11:32:26;;;;;;;3.97;1.70;;;;;;;10.89;100.00;100989.25;5093887;28;20028;-72
2023/01/06 11:35:00;;;;;;;4.38;1.92;;;;;;;10.91;100.00;100988.94;5077306;28;20043;-71
2023/01/06 11:37:39;;;;;;;3.10;1.73;;;;;;;10.91;100.00;100978.66;5044769;28;20060;-72